Pagina principale
METAR-TAF:

METAR-TAF

Aeroporti :

Frosinone, Italia

latitudine: 41-38N, longitudine: 013-18E, altezza: 180 m

Osservazione

Il bollettino è stato emesso 37 minuti fa, alle 10:55 UTC
Vento 2 kt da ovest
Temperature 5°C
Umidità 87%
Pressione 1029 hPa
Visibilità 10 km o più
Poco nuvoloso ad un'altezza di 1000 ft

METAR: LIRH 091055Z 27002KT 9999 FEW010 05/03 Q1029 RMK BKN BKN200 MON LIB NC VIS MIN 9999 WIND THR16 00000KT BLU

Ora: 12:32 (11:32 UTC)

Previsione

Il bollettino è stato emesso 3 ore e 32 minuti fa, alle 08:00 UTC
Previsione valida dal 09 alle 09 UTC al 09 alle 18 UTC
Vento 3 kt da direzioni variabili
Visibilità 10 km o più
Poco nuvoloso ad un'altezza di 3500 ft
Nuvoloso ad un'altezza di 6000 ft
Temporaneamente
dal 09 alle 13 UTC al 09 alle 17 UTC
Vento 7 kt da est

TAF: LIRH 090800Z 0909/0918 VRB03KT 9999 FEW035 BKN060 TEMPO 0913/0917 08007KT

Osservazioni e previsioni meteorologiche di più di 4000 aeroporti (messaggi METAR e TAF).

Le stazioni disponibili sono rappresentate dai dischi gialli e rossi sulla carta.

Puntare il mouse per vedere il nome della stazione.

Clicca sopra per visualizzare le osservazioni e previsioni meteorologiche.

Per cambiare la mappa : fare clic sui pulsanti verdi con una croce nera per ingrandire, il pulsante verde con un trattino per diminuire, o sulla freccia verde per le mappe adiacenti.


METAR-TAF: